Terminal Aerodrome Forecast
Issued by NWS

Home | Current Version | Previous Version | Text Only | Print | Product List | Glossary On
Versions: 1 2 3 4 5 6 7 8 9 10 11 12 13 14 15 16
000
FTUS44 KLZK 250600 CCA
TAFLLQ
TAF COR
KLLQ 250600Z 2506/2606 16005KT P6SM VCSH SCT008 BKN040
      TEMPO 2506/2510 6SM BR BKN008
     FM251000 18004KT 6SM BR VCSH OVC025
      TEMPO 2510/2514 4SM BR OVC010
     FM251600 18008KT P6SM VCSH BKN025 OVC050
     FM252000 17008KT P6SM VCTS BKN050CB PROB30 2600/2606 3SM -TSRA
      BR OVC015CB=

USA.gov is the U.S. government's official web portal to all federal, state and local government web resources and services.